Butte, Montana
Current Conditions -  °F | °C
As of 11:53 PM on Friday 24 Oct 2014 (Local Time) from KBTM Reporting Station
Clear Clear  
Wind Chill: 29°   Ceiling: Unl
Heat Index: 34°   Visibility: 10mi
Dew Point: 33°   Wind: 6mph
Humidity: 96%   Direction: 130°SE
Pressure: 30.12"   Gusts: NA
Location:  45.95°N, 112.5°W
Report Text: KBTM 250553Z AUTO 13005KT 10SM CLR 01/01 A3012 RMK AO2 SLP203 60000 T00110006 10078 20011 50001
Loading
Personal Weather Stations






























Interactive Weather Map
Tropical Storm Tracking
New forecast layout! Learn more

10-Day Weather Forecast

Advertisements
Track Severe Weather on mobile